Hauptseite
METAR-TAF:

METAR-TAF

Flughäfen :

Cairns, Australien

Cairns Airport

Breite: 16-53S, Länge: 145-45E, Höhe: 3 m

Beobachtung

Neuester Wetterbericht von vor 20 Minuten, um 03:00 UTC
Wind 10 kt aus Südost
Temperatur 28°C
Luftfeuchtigkeit 55%
Luftdruck 1014 hPa
Sichtweite 10 km oder mehr
Leicht bewölkt in der Höhe von 3400 ft
Durchbrochene Bewölkung in der Höhe von 7000 ft

METAR: YBCS 300300Z 13010KT 9999 FEW034 BKN070 28/18 Q1014

Zeit: 13:20 (03:20 UTC)

Prognose

Neuester Wetterbericht von vor 2 Stunden und 12 Minuten, um 01:08 UTC
Gültige Prognose vom 30 um 01 UTC bis 30 um 24 UTC
Wind 12 kt aus Süd/Südost
Sichtweite 10 km oder mehr
Leicht bewölkt in der Höhe von 3500 ft
Ab 30 um 0800 UTC
Wind 8 kt aus Süd
Sichtweite 10 km oder mehr
Leicht bewölkt in der Höhe von 2500 ft

TAF: YBCS 300108Z 3001/3024 15012KT 9999 FEW035 FM300800 17008KT 9999 FEW025

Wetterbeobachtungen und Prognosen von mehr als 4000 Flughäfen (METAR und TAF Bericht).

Die verfügbaren Stationen werden durch gelbe und rote Markierungen auf der Karte dargestellt.

Führen Sie die Maus auf sie, um den Namen der Station zu sehen.

Darauf klicken, um die Beobachtung von Wetterbeobachtungen und Prognosen zu sehen.

Um die Karte zu ändern : klicken Sie auf den grünen Tasten mit einem schwarzen Kreuz Zum Vergrößern, auf den grünen Button mit einem Gedankenstrich zu verkleinern, oder auf die grünen Pfeile für benachbarte Karten.


METAR-TAF: